sensor_id;sensor_type;location;lat;lon;timestamp;temperature;humidity
736;DHT22;352;48.626;9.238;2022-11-20T00:02:18;7.80;99.90
736;DHT22;352;48.626;9.238;2022-11-20T00:04:45;7.80;99.90
736;DHT22;352;48.626;9.238;2022-11-20T00:07:13;7.70;99.90
736;DHT22;352;48.626;9.238;2022-11-20T00:09:40;7.70;99.90
736;DHT22;352;48.626;9.238;2022-11-20T00:12:07;7.60;99.90
736;DHT22;352;48.626;9.238;2022-11-20T00:14:33;7.60;99.90
736;DHT22;352;48.626;9.238;2022-11-20T00:17:00;7.50;99.90
736;DHT22;352;48.626;9.238;2022-11-20T00:19:27;7.50;99.90
736;DHT22;352;48.626;9.238;2022-11-20T00:21:54;7.40;99.90
736;DHT22;352;48.626;9.238;2022-11-20T00:24:22;7.30;99.90
736;DHT22;352;48.626;9.238;2022-11-20T00:26:49;7.30;99.90
736;DHT22;352;48.626;9.238;2022-11-20T00:29:16;7.20;99.90
736;DHT22;352;48.626;9.238;2022-11-20T00:31:42;7.20;99.90
736;DHT22;352;48.626;9.238;2022-11-20T00:34:09;7.20;99.90
736;DHT22;352;48.626;9.238;2022-11-20T00:36:36;7.10;99.90
736;DHT22;352;48.626;9.238;2022-11-20T00:39:03;7.10;99.90
736;DHT22;352;48.626;9.238;2022-11-20T00:41:31;7.00;99.90
736;DHT22;352;48.626;9.238;2022-11-20T00:43:58;7.00;99.90
736;DHT22;352;48.626;9.238;2022-11-20T00:46:25;7.00;99.90
736;DHT22;352;48.626;9.238;2022-11-20T00:48:53;6.90;99.90
736;DHT22;352;48.626;9.238;2022-11-20T00:51:22;6.90;99.90
736;DHT22;352;48.626;9.238;2022-11-20T00:53:49;6.90;99.90
736;DHT22;352;48.626;9.238;2022-11-20T00:56:17;6.90;99.90
736;DHT22;352;48.626;9.238;2022-11-20T00:58:46;6.80;99.90
736;DHT22;352;48.626;9.238;2022-11-20T01:01:16;6.80;99.90
736;DHT22;352;48.626;9.238;2022-11-20T01:03:44;6.80;99.90
736;DHT22;352;48.626;9.238;2022-11-20T01:06:14;6.80;99.90
736;DHT22;352;48.626;9.238;2022-11-20T01:08:42;6.70;99.90
736;DHT22;352;48.626;9.238;2022-11-20T01:11:11;6.70;99.90
736;DHT22;352;48.626;9.238;2022-11-20T01:13:38;6.70;99.90
736;DHT22;352;48.626;9.238;2022-11-20T01:16:13;6.70;99.90
736;DHT22;352;48.626;9.238;2022-11-20T01:18:44;6.70;99.90
736;DHT22;352;48.626;9.238;2022-11-20T01:21:51;6.60;99.90
736;DHT22;352;48.626;9.238;2022-11-20T01:24:30;6.60;99.90
736;DHT22;352;48.626;9.238;2022-11-20T01:26:57;6.60;99.90
736;DHT22;352;48.626;9.238;2022-11-20T01:29:24;6.60;99.90
736;DHT22;352;48.626;9.238;2022-11-20T01:31:52;6.50;99.90
736;DHT22;352;48.626;9.238;2022-11-20T01:34:20;6.50;99.90
736;DHT22;352;48.626;9.238;2022-11-20T01:36:47;6.60;99.90
736;DHT22;352;48.626;9.238;2022-11-20T01:39:16;6.60;99.90
736;DHT22;352;48.626;9.238;2022-11-20T01:41:44;6.60;99.90
736;DHT22;352;48.626;9.238;2022-11-20T01:44:50;6.60;99.90
736;DHT22;352;48.626;9.238;2022-11-20T01:47:23;6.60;99.90
736;DHT22;352;48.626;9.238;2022-11-20T01:49:54;6.60;99.90
736;DHT22;352;48.626;9.238;2022-11-20T01:52:24;6.60;99.90
736;DHT22;352;48.626;9.238;2022-11-20T01:54:56;6.50;99.90
736;DHT22;352;48.626;9.238;2022-11-20T01:57:25;6.50;99.90
736;DHT22;352;48.626;9.238;2022-11-20T01:59:57;6.50;99.90
736;DHT22;352;48.626;9.238;2022-11-20T02:02:27;6.50;99.90
736;DHT22;352;48.626;9.238;2022-11-20T02:04:57;6.50;99.90
736;DHT22;352;48.626;9.238;2022-11-20T02:07:25;6.40;99.90
736;DHT22;352;48.626;9.238;2022-11-20T02:09:52;6.40;99.90
736;DHT22;352;48.626;9.238;2022-11-20T02:12:18;6.40;99.90
736;DHT22;352;48.626;9.238;2022-11-20T02:15:03;6.40;99.90
736;DHT22;352;48.626;9.238;2022-11-20T02:17:31;6.30;99.90
736;DHT22;352;48.626;9.238;2022-11-20T02:19:58;6.30;99.90
736;DHT22;352;48.626;9.238;2022-11-20T02:22:30;6.30;99.90
736;DHT22;352;48.626;9.238;2022-11-20T02:25:01;6.20;99.90
736;DHT22;352;48.626;9.238;2022-11-20T02:27:29;6.20;99.90
736;DHT22;352;48.626;9.238;2022-11-20T02:29:57;6.20;99.90
736;DHT22;352;48.626;9.238;2022-11-20T02:32:29;6.20;99.90
736;DHT22;352;48.626;9.238;2022-11-20T02:34:56;6.20;99.90
736;DHT22;352;48.626;9.238;2022-11-20T02:37:32;6.20;99.90
736;DHT22;352;48.626;9.238;2022-11-20T02:40:00;6.10;99.90
736;DHT22;352;48.626;9.238;2022-11-20T02:42:27;6.10;99.90
736;DHT22;352;48.626;9.238;2022-11-20T02:44:54;6.10;99.90
736;DHT22;352;48.626;9.238;2022-11-20T02:47:20;6.10;99.90
736;DHT22;352;48.626;9.238;2022-11-20T02:49:47;6.10;99.90
736;DHT22;352;48.626;9.238;2022-11-20T02:52:14;6.10;99.90
736;DHT22;352;48.626;9.238;2022-11-20T02:54:41;6.10;99.90
736;DHT22;352;48.626;9.238;2022-11-20T02:57:09;6.10;99.90
736;DHT22;352;48.626;9.238;2022-11-20T02:59:35;6.10;99.90
736;DHT22;352;48.626;9.238;2022-11-20T03:02:02;6.10;99.90
736;DHT22;352;48.626;9.238;2022-11-20T03:04:30;6.10;99.90
736;DHT22;352;48.626;9.238;2022-11-20T03:06:57;6.10;99.90
736;DHT22;352;48.626;9.238;2022-11-20T03:09:23;6.10;99.90
736;DHT22;352;48.626;9.238;2022-11-20T03:11:50;6.20;99.90
736;DHT22;352;48.626;9.238;2022-11-20T03:14:18;6.20;99.90
736;DHT22;352;48.626;9.238;2022-11-20T03:16:45;6.30;99.90
736;DHT22;352;48.626;9.238;2022-11-20T03:19:12;6.30;99.90
736;DHT22;352;48.626;9.238;2022-11-20T03:21:39;6.30;99.90
736;DHT22;352;48.626;9.238;2022-11-20T03:24:06;6.30;99.90
736;DHT22;352;48.626;9.238;2022-11-20T03:26:33;6.30;99.90
736;DHT22;352;48.626;9.238;2022-11-20T03:29:01;6.30;99.90
736;DHT22;352;48.626;9.238;2022-11-20T03:31:32;6.20;99.90
736;DHT22;352;48.626;9.238;2022-11-20T03:33:59;6.30;99.90
736;DHT22;352;48.626;9.238;2022-11-20T03:36:27;6.30;99.90
736;DHT22;352;48.626;9.238;2022-11-20T03:38:55;6.40;99.90
736;DHT22;352;48.626;9.238;2022-11-20T03:41:24;6.40;99.90
736;DHT22;352;48.626;9.238;2022-11-20T03:43:53;6.50;99.90
736;DHT22;352;48.626;9.238;2022-11-20T03:46:20;6.60;99.90
736;DHT22;352;48.626;9.238;2022-11-20T03:48:48;6.60;99.90
736;DHT22;352;48.626;9.238;2022-11-20T03:51:17;6.70;99.90
736;DHT22;352;48.626;9.238;2022-11-20T03:53:45;6.70;99.90
736;DHT22;352;48.626;9.238;2022-11-20T03:56:13;6.80;99.90
736;DHT22;352;48.626;9.238;2022-11-20T03:58:40;6.80;99.90
736;DHT22;352;48.626;9.238;2022-11-20T04:01:08;6.90;99.90
736;DHT22;352;48.626;9.238;2022-11-20T04:03:36;6.90;99.90
736;DHT22;352;48.626;9.238;2022-11-20T04:06:07;6.90;99.90
736;DHT22;352;48.626;9.238;2022-11-20T04:08:34;6.90;99.90
736;DHT22;352;48.626;9.238;2022-11-20T04:11:11;6.90;99.90
736;DHT22;352;48.626;9.238;2022-11-20T04:13:39;6.90;99.90
736;DHT22;352;48.626;9.238;2022-11-20T04:16:07;6.90;99.90
736;DHT22;352;48.626;9.238;2022-11-20T04:18:34;6.90;99.90
736;DHT22;352;48.626;9.238;2022-11-20T04:21:02;6.90;99.90
736;DHT22;352;48.626;9.238;2022-11-20T04:23:30;6.90;99.90
736;DHT22;352;48.626;9.238;2022-11-20T04:26:01;7.00;99.90
736;DHT22;352;48.626;9.238;2022-11-20T04:28:28;7.00;99.90
736;DHT22;352;48.626;9.238;2022-11-20T04:31:02;7.00;99.90
736;DHT22;352;48.626;9.238;2022-11-20T04:33:29;7.10;99.90
736;DHT22;352;48.626;9.238;2022-11-20T04:36:00;7.10;99.90
736;DHT22;352;48.626;9.238;2022-11-20T04:38:27;7.10;99.90
736;DHT22;352;48.626;9.238;2022-11-20T04:40:57;7.10;99.90
736;DHT22;352;48.626;9.238;2022-11-20T04:43:25;7.10;99.90
736;DHT22;352;48.626;9.238;2022-11-20T04:45:51;7.00;99.90
736;DHT22;352;48.626;9.238;2022-11-20T04:48:18;7.10;99.90
736;DHT22;352;48.626;9.238;2022-11-20T04:50:45;7.10;99.90
736;DHT22;352;48.626;9.238;2022-11-20T04:53:12;7.10;99.90
736;DHT22;352;48.626;9.238;2022-11-20T04:55:38;7.10;99.90
736;DHT22;352;48.626;9.238;2022-11-20T04:58:07;7.10;99.90
736;DHT22;352;48.626;9.238;2022-11-20T05:00:34;7.20;99.90
736;DHT22;352;48.626;9.238;2022-11-20T05:03:00;7.20;99.90
736;DHT22;352;48.626;9.238;2022-11-20T05:05:27;7.20;99.90
736;DHT22;352;48.626;9.238;2022-11-20T05:07:55;7.20;99.90
736;DHT22;352;48.626;9.238;2022-11-20T05:10:22;7.20;99.90
736;DHT22;352;48.626;9.238;2022-11-20T05:12:49;7.20;99.90
736;DHT22;352;48.626;9.238;2022-11-20T05:15:17;7.30;99.90
736;DHT22;352;48.626;9.238;2022-11-20T05:17:47;7.30;99.90
736;DHT22;352;48.626;9.238;2022-11-20T05:20:14;7.40;99.90
736;DHT22;352;48.626;9.238;2022-11-20T05:22:40;7.40;99.90
736;DHT22;352;48.626;9.238;2022-11-20T05:25:07;7.40;99.90
736;DHT22;352;48.626;9.238;2022-11-20T05:27:34;7.40;99.90
736;DHT22;352;48.626;9.238;2022-11-20T05:30:01;7.40;99.90
736;DHT22;352;48.626;9.238;2022-11-20T05:32:29;7.40;99.90
736;DHT22;352;48.626;9.238;2022-11-20T05:34:56;7.50;99.90
736;DHT22;352;48.626;9.238;2022-11-20T05:37:23;7.50;99.90
736;DHT22;352;48.626;9.238;2022-11-20T05:39:49;7.50;99.90
736;DHT22;352;48.626;9.238;2022-11-20T05:42:16;7.60;99.90
736;DHT22;352;48.626;9.238;2022-11-20T05:44:58;7.60;99.90
736;DHT22;352;48.626;9.238;2022-11-20T05:47:25;7.60;99.90
736;DHT22;352;48.626;9.238;2022-11-20T05:49:54;7.60;99.90
736;DHT22;352;48.626;9.238;2022-11-20T05:52:21;7.60;99.90
736;DHT22;352;48.626;9.238;2022-11-20T05:54:47;7.60;99.90
736;DHT22;352;48.626;9.238;2022-11-20T05:57:14;7.60;99.90
736;DHT22;352;48.626;9.238;2022-11-20T05:59:41;7.60;99.90
736;DHT22;352;48.626;9.238;2022-11-20T06:02:08;7.60;99.90
736;DHT22;352;48.626;9.238;2022-11-20T06:04:35;7.60;99.90
736;DHT22;352;48.626;9.238;2022-11-20T06:07:04;7.60;99.90
736;DHT22;352;48.626;9.238;2022-11-20T06:09:31;7.60;99.90
736;DHT22;352;48.626;9.238;2022-11-20T06:11:58;7.60;99.90
736;DHT22;352;48.626;9.238;2022-11-20T06:14:25;7.60;99.90
736;DHT22;352;48.626;9.238;2022-11-20T06:16:52;7.70;99.90
736;DHT22;352;48.626;9.238;2022-11-20T06:19:18;7.60;99.90
736;DHT22;352;48.626;9.238;2022-11-20T06:21:47;7.60;99.90
736;DHT22;352;48.626;9.238;2022-11-20T06:24:15;7.70;99.90
736;DHT22;352;48.626;9.238;2022-11-20T06:26:42;7.60;99.90
736;DHT22;352;48.626;9.238;2022-11-20T06:29:09;7.60;99.90
736;DHT22;352;48.626;9.238;2022-11-20T06:31:36;7.60;99.90
736;DHT22;352;48.626;9.238;2022-11-20T06:34:03;7.60;99.90
736;DHT22;352;48.626;9.238;2022-11-20T06:36:30;7.60;99.90
736;DHT22;352;48.626;9.238;2022-11-20T06:38:57;7.60;99.90
736;DHT22;352;48.626;9.238;2022-11-20T06:41:25;7.60;99.90
736;DHT22;352;48.626;9.238;2022-11-20T06:43:53;7.60;99.90
736;DHT22;352;48.626;9.238;2022-11-20T06:46:20;7.60;99.90
736;DHT22;352;48.626;9.238;2022-11-20T06:48:48;7.60;99.90
736;DHT22;352;48.626;9.238;2022-11-20T06:51:15;7.70;99.90
736;DHT22;352;48.626;9.238;2022-11-20T06:53:42;7.70;99.90
736;DHT22;352;48.626;9.238;2022-11-20T06:56:09;7.60;99.90
736;DHT22;352;48.626;9.238;2022-11-20T06:58:37;7.70;99.90
736;DHT22;352;48.626;9.238;2022-11-20T07:01:05;7.70;99.90
736;DHT22;352;48.626;9.238;2022-11-20T07:03:32;7.70;99.90
736;DHT22;352;48.626;9.238;2022-11-20T07:06:00;7.70;99.90
736;DHT22;352;48.626;9.238;2022-11-20T07:08:27;7.70;99.90
736;DHT22;352;48.626;9.238;2022-11-20T07:10:57;7.70;99.90
736;DHT22;352;48.626;9.238;2022-11-20T07:13:25;7.70;99.90
736;DHT22;352;48.626;9.238;2022-11-20T07:15:53;7.70;99.90
736;DHT22;352;48.626;9.238;2022-11-20T07:18:20;7.70;99.90
736;DHT22;352;48.626;9.238;2022-11-20T07:20:47;7.70;99.90
736;DHT22;352;48.626;9.238;2022-11-20T07:23:13;7.70;99.90
736;DHT22;352;48.626;9.238;2022-11-20T07:25:40;7.70;99.90
736;DHT22;352;48.626;9.238;2022-11-20T07:28:07;7.70;99.90
736;DHT22;352;48.626;9.238;2022-11-20T07:30:36;7.70;99.90
736;DHT22;352;48.626;9.238;2022-11-20T07:33:04;7.80;99.90
736;DHT22;352;48.626;9.238;2022-11-20T07:35:31;7.80;99.90
736;DHT22;352;48.626;9.238;2022-11-20T07:37:58;7.90;99.90
736;DHT22;352;48.626;9.238;2022-11-20T07:40:25;7.90;99.90
736;DHT22;352;48.626;9.238;2022-11-20T07:42:53;7.90;99.90
736;DHT22;352;48.626;9.238;2022-11-20T07:45:22;8.00;99.90
736;DHT22;352;48.626;9.238;2022-11-20T07:47:49;8.00;99.90
736;DHT22;352;48.626;9.238;2022-11-20T07:50:17;8.00;99.90
736;DHT22;352;48.626;9.238;2022-11-20T07:52:44;8.00;99.90
736;DHT22;352;48.626;9.238;2022-11-20T07:55:11;8.00;99.90
736;DHT22;352;48.626;9.238;2022-11-20T07:57:38;8.10;99.90
736;DHT22;352;48.626;9.238;2022-11-20T08:00:07;8.30;99.90
736;DHT22;352;48.626;9.238;2022-11-20T08:02:37;8.40;99.90
736;DHT22;352;48.626;9.238;2022-11-20T08:05:05;8.60;99.90
736;DHT22;352;48.626;9.238;2022-11-20T08:07:37;8.70;99.90
736;DHT22;352;48.626;9.238;2022-11-20T08:10:04;9.00;99.90
736;DHT22;352;48.626;9.238;2022-11-20T08:12:32;9.10;99.90
736;DHT22;352;48.626;9.238;2022-11-20T08:15:17;9.30;99.90
736;DHT22;352;48.626;9.238;2022-11-20T08:17:43;9.30;99.90
736;DHT22;352;48.626;9.238;2022-11-20T08:20:10;9.40;99.90
736;DHT22;352;48.626;9.238;2022-11-20T08:22:39;9.30;99.90
736;DHT22;352;48.626;9.238;2022-11-20T08:25:06;9.30;99.90
736;DHT22;352;48.626;9.238;2022-11-20T08:27:33;9.30;99.90
736;DHT22;352;48.626;9.238;2022-11-20T08:30:00;9.20;99.90
736;DHT22;352;48.626;9.238;2022-11-20T08:32:26;9.20;99.90
736;DHT22;352;48.626;9.238;2022-11-20T08:34:53;9.20;99.90
736;DHT22;352;48.626;9.238;2022-11-20T08:37:20;9.30;99.90
736;DHT22;352;48.626;9.238;2022-11-20T08:39:48;9.20;99.90
736;DHT22;352;48.626;9.238;2022-11-20T08:42:14;9.20;99.90
736;DHT22;352;48.626;9.238;2022-11-20T08:44:41;9.20;99.90
736;DHT22;352;48.626;9.238;2022-11-20T08:47:08;9.10;99.90
736;DHT22;352;48.626;9.238;2022-11-20T08:49:35;9.10;99.90
736;DHT22;352;48.626;9.238;2022-11-20T08:52:02;9.10;99.90
736;DHT22;352;48.626;9.238;2022-11-20T08:54:28;9.20;99.90
736;DHT22;352;48.626;9.238;2022-11-20T08:56:56;9.20;99.90
736;DHT22;352;48.626;9.238;2022-11-20T08:59:23;9.20;99.90
736;DHT22;352;48.626;9.238;2022-11-20T09:01:50;9.20;99.90
736;DHT22;352;48.626;9.238;2022-11-20T09:04:17;9.30;99.90
736;DHT22;352;48.626;9.238;2022-11-20T09:06:44;9.30;99.90
736;DHT22;352;48.626;9.238;2022-11-20T09:09:10;9.30;99.90
736;DHT22;352;48.626;9.238;2022-11-20T09:11:37;9.40;99.90
736;DHT22;352;48.626;9.238;2022-11-20T09:14:05;9.40;99.90
736;DHT22;352;48.626;9.238;2022-11-20T09:16:32;9.50;99.90
736;DHT22;352;48.626;9.238;2022-11-20T09:18:59;9.50;99.90
736;DHT22;352;48.626;9.238;2022-11-20T09:21:25;9.50;99.90
736;DHT22;352;48.626;9.238;2022-11-20T09:23:52;9.50;99.90
736;DHT22;352;48.626;9.238;2022-11-20T09:26:19;9.50;99.90
736;DHT22;352;48.626;9.238;2022-11-20T09:28:46;9.60;99.90
736;DHT22;352;48.626;9.238;2022-11-20T09:31:19;9.70;99.90
736;DHT22;352;48.626;9.238;2022-11-20T09:33:47;9.80;99.90
736;DHT22;352;48.626;9.238;2022-11-20T09:36:14;9.80;99.90
736;DHT22;352;48.626;9.238;2022-11-20T09:38:43;9.90;99.90
736;DHT22;352;48.626;9.238;2022-11-20T09:44:15;9.90;99.90
736;DHT22;352;48.626;9.238;2022-11-20T09:46:52;9.90;99.90
736;DHT22;352;48.626;9.238;2022-11-20T09:49:26;9.90;99.90
736;DHT22;352;48.626;9.238;2022-11-20T09:51:58;9.90;99.90
736;DHT22;352;48.626;9.238;2022-11-20T09:54:29;9.90;99.90
736;DHT22;352;48.626;9.238;2022-11-20T09:57:00;9.90;99.90
736;DHT22;352;48.626;9.238;2022-11-20T09:59:35;9.90;99.90
736;DHT22;352;48.626;9.238;2022-11-20T10:02:16;9.90;99.90
736;DHT22;352;48.626;9.238;2022-11-20T10:04:48;9.90;99.90
736;DHT22;352;48.626;9.238;2022-11-20T10:07:21;10.00;99.90
736;DHT22;352;48.626;9.238;2022-11-20T10:09:52;10.00;99.90
736;DHT22;352;48.626;9.238;2022-11-20T10:12:25;10.10;99.90
736;DHT22;352;48.626;9.238;2022-11-20T10:15:06;10.20;99.90
736;DHT22;352;48.626;9.238;2022-11-20T10:18:08;10.20;99.90
736;DHT22;352;48.626;9.238;2022-11-20T10:20:43;10.30;99.90
736;DHT22;352;48.626;9.238;2022-11-20T10:23:25;10.40;99.90
736;DHT22;352;48.626;9.238;2022-11-20T10:26:01;10.40;99.90
736;DHT22;352;48.626;9.238;2022-11-20T10:28:38;10.40;99.90
736;DHT22;352;48.626;9.238;2022-11-20T10:31:12;10.30;99.90
736;DHT22;352;48.626;9.238;2022-11-20T10:33:43;10.20;99.90
736;DHT22;352;48.626;9.238;2022-11-20T10:36:16;10.10;99.90
736;DHT22;352;48.626;9.238;2022-11-20T10:38:47;10.20;99.90
736;DHT22;352;48.626;9.238;2022-11-20T10:41:21;10.10;99.90
736;DHT22;352;48.626;9.238;2022-11-20T10:43:58;10.20;99.90
736;DHT22;352;48.626;9.238;2022-11-20T10:46:32;10.20;99.90
736;DHT22;352;48.626;9.238;2022-11-20T10:49:09;10.30;99.90
736;DHT22;352;48.626;9.238;2022-11-20T10:51:46;10.50;99.90
736;DHT22;352;48.626;9.238;2022-11-20T10:54:21;10.60;99.90
736;DHT22;352;48.626;9.238;2022-11-20T10:56:51;10.60;99.90
736;DHT22;352;48.626;9.238;2022-11-20T10:59:41;10.60;99.90
736;DHT22;352;48.626;9.238;2022-11-20T11:02:16;10.60;99.90
736;DHT22;352;48.626;9.238;2022-11-20T11:04:46;10.60;99.90
736;DHT22;352;48.626;9.238;2022-11-20T11:07:17;10.60;99.90
736;DHT22;352;48.626;9.238;2022-11-20T11:09:48;10.70;99.90
736;DHT22;352;48.626;9.238;2022-11-20T11:12:15;10.60;99.90
736;DHT22;352;48.626;9.238;2022-11-20T11:14:48;10.70;99.90
736;DHT22;352;48.626;9.238;2022-11-20T11:17:24;10.70;99.90
736;DHT22;352;48.626;9.238;2022-11-20T11:19:59;10.70;99.90
736;DHT22;352;48.626;9.238;2022-11-20T11:22:28;10.70;99.90
736;DHT22;352;48.626;9.238;2022-11-20T11:24:55;10.80;99.90
736;DHT22;352;48.626;9.238;2022-11-20T11:27:22;10.90;99.90
736;DHT22;352;48.626;9.238;2022-11-20T11:29:49;11.10;99.90
736;DHT22;352;48.626;9.238;2022-11-20T11:32:19;11.20;99.90
736;DHT22;352;48.626;9.238;2022-11-20T11:34:59;11.40;99.90
736;DHT22;352;48.626;9.238;2022-11-20T11:37:32;11.50;99.90
736;DHT22;352;48.626;9.238;2022-11-20T11:40:00;11.70;99.90
736;DHT22;352;48.626;9.238;2022-11-20T11:42:28;11.70;99.90
736;DHT22;352;48.626;9.238;2022-11-20T11:44:57;11.90;99.90
736;DHT22;352;48.626;9.238;2022-11-20T11:47:35;12.00;99.90
736;DHT22;352;48.626;9.238;2022-11-20T11:50:15;12.10;99.90
736;DHT22;352;48.626;9.238;2022-11-20T11:52:45;12.00;99.90
736;DHT22;352;48.626;9.238;2022-11-20T11:55:17;12.00;99.90
736;DHT22;352;48.626;9.238;2022-11-20T11:57:49;12.00;99.90
736;DHT22;352;48.626;9.238;2022-11-20T12:00:21;12.00;99.90
736;DHT22;352;48.626;9.238;2022-11-20T12:02:56;11.80;99.90
736;DHT22;352;48.626;9.238;2022-11-20T12:05:32;11.70;99.90
736;DHT22;352;48.626;9.238;2022-11-20T12:08:04;11.60;99.90
736;DHT22;352;48.626;9.238;2022-11-20T12:10:40;11.60;99.90
736;DHT22;352;48.626;9.238;2022-11-20T12:13:18;11.50;99.90
736;DHT22;352;48.626;9.238;2022-11-20T12:15:47;11.50;99.90
736;DHT22;352;48.626;9.238;2022-11-20T12:18:16;11.50;99.90
736;DHT22;352;48.626;9.238;2022-11-20T12:20:52;11.60;99.90
736;DHT22;352;48.626;9.238;2022-11-20T12:23:26;11.60;99.90
736;DHT22;352;48.626;9.238;2022-11-20T12:25:57;11.60;99.90
736;DHT22;352;48.626;9.238;2022-11-20T12:28:44;11.60;99.90
736;DHT22;352;48.626;9.238;2022-11-20T12:31:30;11.50;99.90
736;DHT22;352;48.626;9.238;2022-11-20T12:36:56;11.50;99.90
736;DHT22;352;48.626;9.238;2022-11-20T12:39:34;11.50;99.90
736;DHT22;352;48.626;9.238;2022-11-20T12:42:32;11.50;99.90
736;DHT22;352;48.626;9.238;2022-11-20T12:45:51;11.60;99.90
736;DHT22;352;48.626;9.238;2022-11-20T12:48:51;11.50;99.90
736;DHT22;352;48.626;9.238;2022-11-20T12:54:39;11.10;99.90
736;DHT22;352;48.626;9.238;2022-11-20T12:57:13;11.10;99.90
736;DHT22;352;48.626;9.238;2022-11-20T13:03:24;10.90;99.90
736;DHT22;352;48.626;9.238;2022-11-20T13:06:00;10.90;99.90
736;DHT22;352;48.626;9.238;2022-11-20T13:08:33;10.80;99.90
736;DHT22;352;48.626;9.238;2022-11-20T13:11:08;10.80;99.90
736;DHT22;352;48.626;9.238;2022-11-20T13:13:45;10.70;99.90
736;DHT22;352;48.626;9.238;2022-11-20T13:16:18;10.80;99.90
736;DHT22;352;48.626;9.238;2022-11-20T13:18:46;10.90;99.90
736;DHT22;352;48.626;9.238;2022-11-20T13:21:15;11.10;99.90
736;DHT22;352;48.626;9.238;2022-11-20T13:23:42;11.30;99.90
736;DHT22;352;48.626;9.238;2022-11-20T13:26:17;11.50;99.90
736;DHT22;352;48.626;9.238;2022-11-20T13:28:46;11.50;99.90
736;DHT22;352;48.626;9.238;2022-11-20T13:31:34;11.50;99.90
736;DHT22;352;48.626;9.238;2022-11-20T13:34:03;11.60;99.90
736;DHT22;352;48.626;9.238;2022-11-20T13:36:31;11.60;99.90
736;DHT22;352;48.626;9.238;2022-11-20T13:39:00;11.60;99.90
736;DHT22;352;48.626;9.238;2022-11-20T13:41:30;11.50;99.90
736;DHT22;352;48.626;9.238;2022-11-20T13:44:06;11.50;99.90
736;DHT22;352;48.626;9.238;2022-11-20T13:46:38;11.30;99.90
736;DHT22;352;48.626;9.238;2022-11-20T13:49:10;11.10;99.90
736;DHT22;352;48.626;9.238;2022-11-20T13:51:43;10.90;99.90
736;DHT22;352;48.626;9.238;2022-11-20T13:57:22;10.80;99.90
736;DHT22;352;48.626;9.238;2022-11-20T13:59:58;10.80;99.90
736;DHT22;352;48.626;9.238;2022-11-20T14:02:28;10.90;99.90
736;DHT22;352;48.626;9.238;2022-11-20T14:04:59;10.90;99.90
736;DHT22;352;48.626;9.238;2022-11-20T14:07:34;11.00;99.90
736;DHT22;352;48.626;9.238;2022-11-20T14:10:04;11.00;99.90
736;DHT22;352;48.626;9.238;2022-11-20T14:12:33;10.90;99.90
736;DHT22;352;48.626;9.238;2022-11-20T14:15:02;10.80;99.90
736;DHT22;352;48.626;9.238;2022-11-20T14:17:31;10.70;99.90
736;DHT22;352;48.626;9.238;2022-11-20T14:20:01;10.50;99.90
736;DHT22;352;48.626;9.238;2022-11-20T14:22:28;10.40;99.90
736;DHT22;352;48.626;9.238;2022-11-20T14:25:05;10.20;99.90
736;DHT22;352;48.626;9.238;2022-11-20T14:27:36;10.10;99.90
736;DHT22;352;48.626;9.238;2022-11-20T14:30:05;10.00;99.90
736;DHT22;352;48.626;9.238;2022-11-20T14:32:35;9.90;99.90
736;DHT22;352;48.626;9.238;2022-11-20T14:35:10;9.90;99.90
736;DHT22;352;48.626;9.238;2022-11-20T14:37:41;9.90;99.90
736;DHT22;352;48.626;9.238;2022-11-20T14:40:32;9.90;99.90
736;DHT22;352;48.626;9.238;2022-11-20T14:43:17;9.80;99.90
736;DHT22;352;48.626;9.238;2022-11-20T14:45:46;9.80;99.90
736;DHT22;352;48.626;9.238;2022-11-20T14:48:15;9.80;99.90
736;DHT22;352;48.626;9.238;2022-11-20T14:50:49;9.80;99.90
736;DHT22;352;48.626;9.238;2022-11-20T14:53:22;9.80;99.90
736;DHT22;352;48.626;9.238;2022-11-20T14:55:56;9.80;99.90
736;DHT22;352;48.626;9.238;2022-11-20T14:58:27;9.70;99.90
736;DHT22;352;48.626;9.238;2022-11-20T15:00:55;9.70;99.90
736;DHT22;352;48.626;9.238;2022-11-20T15:03:30;9.70;99.90
736;DHT22;352;48.626;9.238;2022-11-20T15:05:56;9.60;99.90
736;DHT22;352;48.626;9.238;2022-11-20T15:08:23;9.50;99.90
736;DHT22;352;48.626;9.238;2022-11-20T15:10:51;9.50;99.90
736;DHT22;352;48.626;9.238;2022-11-20T15:13:26;9.50;99.90
736;DHT22;352;48.626;9.238;2022-11-20T15:15:57;9.40;99.90
736;DHT22;352;48.626;9.238;2022-11-20T15:18:28;9.30;99.90
736;DHT22;352;48.626;9.238;2022-11-20T15:20:56;9.30;99.90
736;DHT22;352;48.626;9.238;2022-11-20T15:23:24;9.30;99.90
736;DHT22;352;48.626;9.238;2022-11-20T15:25:52;9.20;99.90
736;DHT22;352;48.626;9.238;2022-11-20T15:28:23;9.20;99.90
736;DHT22;352;48.626;9.238;2022-11-20T15:30:55;9.10;99.90
736;DHT22;352;48.626;9.238;2022-11-20T15:33:22;9.00;99.90
736;DHT22;352;48.626;9.238;2022-11-20T15:35:49;8.90;99.90
736;DHT22;352;48.626;9.238;2022-11-20T15:38:16;8.80;99.90
736;DHT22;352;48.626;9.238;2022-11-20T15:40:42;8.70;99.90
736;DHT22;352;48.626;9.238;2022-11-20T15:43:09;8.70;99.90
736;DHT22;352;48.626;9.238;2022-11-20T15:45:38;8.60;99.90
736;DHT22;352;48.626;9.238;2022-11-20T15:48:12;8.60;99.90
736;DHT22;352;48.626;9.238;2022-11-20T15:50:46;8.50;99.90
736;DHT22;352;48.626;9.238;2022-11-20T15:53:16;8.40;99.90
736;DHT22;352;48.626;9.238;2022-11-20T15:55:43;8.40;99.90
736;DHT22;352;48.626;9.238;2022-11-20T15:58:09;8.40;99.90
736;DHT22;352;48.626;9.238;2022-11-20T16:00:36;8.30;99.90
736;DHT22;352;48.626;9.238;2022-11-20T16:03:03;8.30;99.90
736;DHT22;352;48.626;9.238;2022-11-20T16:05:31;8.20;99.90
736;DHT22;352;48.626;9.238;2022-11-20T16:07:58;8.20;99.90
736;DHT22;352;48.626;9.238;2022-11-20T16:10:25;8.30;99.90
736;DHT22;352;48.626;9.238;2022-11-20T16:12:52;8.30;99.90
736;DHT22;352;48.626;9.238;2022-11-20T16:15:36;8.20;99.90
736;DHT22;352;48.626;9.238;2022-11-20T16:18:15;8.20;99.90
736;DHT22;352;48.626;9.238;2022-11-20T16:20:44;8.20;99.90
736;DHT22;352;48.626;9.238;2022-11-20T16:23:11;8.10;99.90
736;DHT22;352;48.626;9.238;2022-11-20T16:25:38;8.10;99.90
736;DHT22;352;48.626;9.238;2022-11-20T16:28:05;8.10;99.90
736;DHT22;352;48.626;9.238;2022-11-20T16:30:33;8.20;99.90
736;DHT22;352;48.626;9.238;2022-11-20T16:32:59;8.10;99.90
736;DHT22;352;48.626;9.238;2022-11-20T16:35:27;8.20;99.90
736;DHT22;352;48.626;9.238;2022-11-20T16:37:57;8.20;99.90
736;DHT22;352;48.626;9.238;2022-11-20T16:40:25;8.20;99.90
736;DHT22;352;48.626;9.238;2022-11-20T16:43:07;8.30;99.90
736;DHT22;352;48.626;9.238;2022-11-20T16:45:37;8.30;99.90
736;DHT22;352;48.626;9.238;2022-11-20T16:48:05;8.30;99.90
736;DHT22;352;48.626;9.238;2022-11-20T16:50:32;8.30;99.90
736;DHT22;352;48.626;9.238;2022-11-20T16:53:02;8.30;99.90
736;DHT22;352;48.626;9.238;2022-11-20T16:55:30;8.30;99.90
736;DHT22;352;48.626;9.238;2022-11-20T16:58:19;8.30;99.90
736;DHT22;352;48.626;9.238;2022-11-20T17:00:48;8.30;99.90
736;DHT22;352;48.626;9.238;2022-11-20T17:03:16;8.30;99.90
736;DHT22;352;48.626;9.238;2022-11-20T17:05:47;8.30;99.90
736;DHT22;352;48.626;9.238;2022-11-20T17:14:48;8.30;99.90
736;DHT22;352;48.626;9.238;2022-11-20T17:17:17;8.30;99.90
736;DHT22;352;48.626;9.238;2022-11-20T17:20:12;8.40;99.90
736;DHT22;352;48.626;9.238;2022-11-20T17:22:54;8.30;99.90
736;DHT22;352;48.626;9.238;2022-11-20T17:25:22;8.40;99.90
736;DHT22;352;48.626;9.238;2022-11-20T17:27:50;8.40;99.90
736;DHT22;352;48.626;9.238;2022-11-20T17:30:18;8.30;99.90